Time;durP1;ratioP1;P1;durP2;ratioP2;P2;SDS_P1;SDS_P2;PMS_P1;PMS_P2;Temp;Humidity;BMP_temperature;BMP_pressure;BME280_temperature;BME280_humidity;BME280_pressure;Samples;Min_cycle;Max_cycle;Signal;HPM_P1;HPM_P2
2021/12/06 00:01:09;;;;;;;35.30;22.38;;;3.60;99.90;;;;;;5082615;28;20520;-70
2021/12/06 00:03:40;;;;;;;34.47;20.88;;;3.40;99.90;;;;;;5060693;28;20048;-70
2021/12/06 00:06:06;;;;;;;35.63;21.60;;;3.30;99.90;;;;;;5079247;28;20035;-71
2021/12/06 00:08:32;;;;;;;35.38;22.25;;;3.30;99.90;;;;;;5063101;28;20496;-70
2021/12/06 00:10:58;;;;;;;33.72;22.02;;;3.30;99.90;;;;;;5058985;28;20044;-70
2021/12/06 00:13:24;;;;;;;35.15;21.80;;;3.20;99.90;;;;;;5062504;28;20113;-70
2021/12/06 00:15:51;;;;;;;31.25;20.13;;;3.50;99.90;;;;;;5064164;28;20476;-70
2021/12/06 00:18:18;;;;;;;34.85;21.70;;;3.20;99.90;;;;;;5067860;28;20074;-70
2021/12/06 00:20:45;;;;;;;32.80;21.50;;;3.20;99.90;;;;;;5064008;28;20482;-70
2021/12/06 00:23:11;;;;;;;34.28;21.92;;;3.30;99.90;;;;;;5065156;28;20074;-70
2021/12/06 00:25:37;;;;;;;36.97;22.75;;;3.30;99.90;;;;;;5065283;28;20547;-70
2021/12/06 00:28:03;;;;;;;33.20;20.98;;;3.30;99.90;;;;;;5083551;28;20039;-70
2021/12/06 00:30:29;;;;;;;34.78;21.38;;;3.30;99.90;;;;;;5064638;28;20131;-70
2021/12/06 00:32:54;;;;;;;36.17;21.85;;;3.60;99.90;;;;;;5067630;28;20560;-70
2021/12/06 00:35:23;;;;;;;34.08;21.00;;;3.70;99.90;;;;;;5065038;28;20048;-70
2021/12/06 00:38:09;;;;;;;38.40;22.88;;;3.30;99.90;;;;;;5067042;28;20528;-70
2021/12/06 00:40:39;;;;;;;37.92;22.50;;;3.30;99.90;;;;;;5070268;28;20064;-70
2021/12/06 00:43:06;;;;;;;36.17;21.85;;;3.30;99.90;;;;;;5070597;28;20039;-70
2021/12/06 00:45:32;;;;;;;38.80;22.75;;;3.20;99.90;;;;;;5071943;28;20426;-70
2021/12/06 00:47:59;;;;;;;35.95;21.40;;;3.10;99.90;;;;;;5072423;28;20063;-70
2021/12/06 00:50:28;;;;;;;33.42;21.08;;;3.10;99.90;;;;;;5068205;28;20048;-70
2021/12/06 00:52:55;;;;;;;33.05;20.88;;;3.10;99.90;;;;;;5068472;28;20040;-70
2021/12/06 00:55:21;;;;;;;37.25;21.85;;;3.10;99.90;;;;;;5066395;28;20040;-70
2021/12/06 00:57:49;;;;;;;34.33;21.65;;;3.00;99.90;;;;;;5066770;28;20394;-70
2021/12/06 01:00:23;;;;;;;36.72;22.48;;;3.00;99.90;;;;;;5065867;28;20036;-70
2021/12/06 01:02:49;;;;;;;33.20;21.00;;;3.00;99.90;;;;;;5064540;28;20383;-70
2021/12/06 01:05:15;;;;;;;32.95;21.00;;;3.00;99.90;;;;;;5069894;28;20044;-70
2021/12/06 01:07:41;;;;;;;34.92;22.30;;;3.00;99.90;;;;;;5068960;28;20162;-71
2021/12/06 01:10:08;;;;;;;31.95;20.60;;;3.00;99.90;;;;;;5067382;28;20155;-70
2021/12/06 01:12:34;;;;;;;33.20;21.02;;;3.00;99.90;;;;;;5069847;28;20080;-71
2021/12/06 01:15:00;;;;;;;31.85;19.88;;;3.00;99.90;;;;;;5066485;28;20194;-71
2021/12/06 01:17:26;;;;;;;29.80;19.95;;;3.10;99.90;;;;;;5064165;28;20063;-70
2021/12/06 01:19:52;;;;;;;32.80;20.67;;;3.00;99.90;;;;;;5063683;28;20068;-70
2021/12/06 01:22:41;;;;;;;30.13;19.70;;;3.00;99.90;;;;;;5083984;28;20040;-70
2021/12/06 01:25:19;;;;;;;33.15;21.13;;;3.00;99.90;;;;;;5083703;28;20097;-70
2021/12/06 01:28:12;;;;;;;30.60;19.98;;;3.00;99.90;;;;;;5068026;28;20068;-70
2021/12/06 01:41:18;;;;;;;32.45;20.30;;;3.00;99.90;;;;;;5064096;28;20047;-70
2021/12/06 01:44:05;;;;;;;27.38;18.73;;;3.00;99.90;;;;;;5088515;28;20787;-71
2021/12/06 01:46:32;;;;;;;28.02;18.08;;;3.10;99.90;;;;;;5068820;28;21672;-70
2021/12/06 01:48:58;;;;;;;31.60;20.30;;;3.10;99.90;;;;;;5088348;28;20043;-71
2021/12/06 01:51:24;;;;;;;28.70;18.70;;;3.30;99.90;;;;;;5047282;28;20032;-70
2021/12/06 01:53:50;;;;;;;30.50;18.88;;;3.10;99.90;;;;;;5085059;28;20036;-71
2021/12/06 01:56:16;;;;;;;33.85;20.35;;;3.20;99.90;;;;;;5065209;28;20040;-71
2021/12/06 01:58:45;;;;;;;32.75;20.52;;;3.40;99.90;;;;;;5066739;28;20122;-71
2021/12/06 02:01:11;;;;;;;30.20;19.13;;;3.70;99.90;;;;;;5062356;28;20109;-71
2021/12/06 02:03:37;;;;;;;31.65;18.85;;;3.10;99.90;;;;;;5064007;28;20081;-70
2021/12/06 02:06:04;;;;;;;33.70;20.65;;;3.10;99.90;;;;;;5085795;28;20421;-70
2021/12/06 02:08:29;;;;;;;32.80;20.88;;;3.00;99.90;;;;;;5067881;28;20052;-71
2021/12/06 02:11:01;;;;;;;38.65;22.75;;;3.00;99.90;;;;;;5065094;28;20043;-71
2021/12/06 02:13:31;;;;;;;34.15;21.98;;;3.10;99.90;;;;;;5068670;28;20039;-71
2021/12/06 02:15:57;;;;;;;37.80;23.48;;;3.20;99.90;;;;;;5069513;28;20040;-71
2021/12/06 02:19:02;;;;;;;37.88;23.48;;;3.20;99.90;;;;;;5066496;28;20044;-70
2021/12/06 02:21:27;;;;;;;37.15;22.15;;;3.00;99.90;;;;;;5080987;28;20044;-71
2021/12/06 02:23:55;;;;;;;35.50;22.65;;;3.00;99.90;;;;;;5065464;28;20112;-71
2021/12/06 02:26:22;;;;;;;38.05;22.95;;;3.00;99.90;;;;;;5048383;28;20047;-71
2021/12/06 02:28:48;;;;;;;38.03;22.90;;;2.90;99.90;;;;;;5068807;28;20078;-71
2021/12/06 02:31:15;;;;;;;37.72;23.13;;;2.90;99.90;;;;;;5066386;28;20119;-70
2021/12/06 02:33:44;;;;;;;42.72;25.40;;;2.90;99.90;;;;;;5067697;28;20063;-71
2021/12/06 02:36:11;;;;;;;41.30;23.67;;;3.00;99.90;;;;;;5082874;28;20040;-71
2021/12/06 02:38:36;;;;;;;40.90;24.30;;;2.90;99.90;;;;;;5064073;28;20484;-71
2021/12/06 02:41:04;;;;;;;41.50;24.83;;;2.90;99.90;;;;;;5066555;28;20040;-71
2021/12/06 02:43:33;;;;;;;40.67;24.02;;;2.90;99.90;;;;;;5065698;28;20067;-71
2021/12/06 02:45:59;;;;;;;42.53;25.48;;;2.90;99.90;;;;;;5062219;28;20048;-71
2021/12/06 02:48:24;;;;;;;45.80;24.92;;;2.90;99.90;;;;;;5081582;28;20049;-71
2021/12/06 02:50:53;;;;;;;41.95;23.90;;;2.90;99.90;;;;;;5061735;28;20364;-70
2021/12/06 02:53:21;;;;;;;39.40;23.35;;;2.90;99.90;;;;;;5084052;28;20484;-70
2021/12/06 02:55:52;;;;;;;46.10;26.20;;;3.20;99.90;;;;;;5051780;28;20032;-71
2021/12/06 03:01:04;;;;;;;44.53;25.30;;;2.90;99.90;;;;;;5067373;28;20064;-70
2021/12/06 03:03:30;;;;;;;48.45;25.92;;;2.90;99.90;;;;;;5082729;28;20120;-71
2021/12/06 03:05:56;;;;;;;46.05;24.60;;;2.90;99.90;;;;;;5068310;28;20059;-71
2021/12/06 03:08:39;;;;;;;46.90;25.02;;;2.90;99.90;;;;;;5065414;28;20512;-70
2021/12/06 03:11:08;;;;;;;45.55;24.25;;;2.90;99.90;;;;;;5067618;28;20384;-70
2021/12/06 03:13:34;;;;;;;55.03;24.27;;;2.90;99.90;;;;;;5065498;28;20122;-70
2021/12/06 03:16:00;;;;;;;47.83;26.13;;;2.90;99.90;;;;;;5067602;28;20112;-70
2021/12/06 03:18:26;;;;;;;52.28;26.88;;;2.90;99.90;;;;;;5065985;28;20105;-70
2021/12/06 03:20:51;;;;;;;53.03;25.55;;;2.90;99.90;;;;;;5066410;28;20027;-71
2021/12/06 03:23:17;;;;;;;57.00;28.35;;;2.90;99.90;;;;;;5067234;28;20040;-70
2021/12/06 03:25:44;;;;;;;48.05;25.27;;;3.00;99.90;;;;;;5087620;28;20036;-71
2021/12/06 03:28:10;;;;;;;55.92;28.75;;;2.90;99.90;;;;;;5061964;28;20040;-71
2021/12/06 03:30:36;;;;;;;48.88;24.27;;;2.80;99.90;;;;;;5063780;28;20047;-71
2021/12/06 03:33:02;;;;;;;63.70;28.13;;;2.80;99.90;;;;;;5086073;28;20086;-70
2021/12/06 03:35:28;;;;;;;50.45;25.90;;;2.80;99.90;;;;;;5063164;28;20377;-71
2021/12/06 03:37:54;;;;;;;58.47;27.33;;;2.80;99.90;;;;;;5063062;28;20036;-71
2021/12/06 03:40:19;;;;;;;56.03;27.02;;;2.80;99.90;;;;;;5064825;28;20043;-70
2021/12/06 03:42:45;;;;;;;61.45;27.08;;;3.10;99.90;;;;;;5068276;28;20044;-71
2021/12/06 03:45:11;;;;;;;53.70;27.75;;;2.80;99.90;;;;;;5065919;28;20044;-71
2021/12/06 03:47:37;;;;;;;56.63;27.98;;;2.80;99.90;;;;;;5050209;28;20625;-71
2021/12/06 03:50:05;;;;;;;47.63;24.60;;;2.80;99.90;;;;;;5064054;28;20097;-71
2021/12/06 03:52:31;;;;;;;53.67;26.95;;;2.80;99.90;;;;;;5064609;28;20147;-71
2021/12/06 03:54:57;;;;;;;49.90;25.35;;;2.80;99.90;;;;;;5068819;28;20130;-71
2021/12/06 03:57:23;;;;;;;56.50;26.98;;;2.80;99.90;;;;;;5033361;28;20040;-71
2021/12/06 03:59:50;;;;;;;53.83;25.95;;;2.90;99.90;;;;;;5065068;28;20032;-71
2021/12/06 04:02:16;;;;;;;51.10;25.05;;;2.90;99.90;;;;;;5065363;28;20500;-71
2021/12/06 04:04:43;;;;;;;51.22;24.73;;;2.90;99.90;;;;;;5082807;28;20045;-71
2021/12/06 04:07:09;;;;;;;51.83;25.13;;;3.20;99.90;;;;;;5064100;28;20365;-72
2021/12/06 04:09:35;;;;;;;61.67;28.67;;;2.90;99.90;;;;;;5071826;28;20040;-71
2021/12/06 04:12:03;;;;;;;55.10;26.67;;;2.90;99.90;;;;;;5088942;28;20048;-70
2021/12/06 04:14:29;;;;;;;56.33;26.05;;;2.90;99.90;;;;;;5066971;28;20055;-70
2021/12/06 04:16:55;;;;;;;51.33;26.02;;;2.90;99.90;;;;;;5069431;28;20047;-68
2021/12/06 04:19:20;;;;;;;58.83;25.95;;;3.00;99.90;;;;;;5069750;28;20040;-68
2021/12/06 04:21:47;;;;;;;47.28;23.55;;;3.00;99.90;;;;;;5071575;28;20121;-68
2021/12/06 04:24:14;;;;;;;50.70;25.33;;;3.00;99.90;;;;;;5052101;28;20046;-68
2021/12/06 04:26:40;;;;;;;55.58;26.08;;;3.30;99.90;;;;;;5070724;28;20058;-70
2021/12/06 04:29:06;;;;;;;51.25;25.90;;;3.00;99.90;;;;;;5066660;28;20082;-70
2021/12/06 04:31:39;;;;;;;58.25;25.77;;;3.00;99.90;;;;;;5066893;28;20040;-70
2021/12/06 04:34:06;;;;;;;55.10;25.25;;;3.00;99.90;;;;;;5086865;28;20568;-70
2021/12/06 04:36:32;;;;;;;51.08;25.17;;;3.00;99.90;;;;;;5068622;28;20036;-70
2021/12/06 04:38:57;;;;;;;59.90;25.73;;;3.00;99.90;;;;;;5067414;28;20085;-70
2021/12/06 04:41:24;;;;;;;56.75;26.35;;;3.00;99.90;;;;;;5064971;28;20040;-70
2021/12/06 04:43:50;;;;;;;55.88;25.95;;;3.00;99.90;;;;;;5065686;28;20044;-70
2021/12/06 04:46:16;;;;;;;57.53;25.88;;;3.00;99.90;;;;;;5068534;28;20123;-70
2021/12/06 04:48:42;;;;;;;61.35;26.30;;;3.00;99.90;;;;;;5067363;28;20040;-70
2021/12/06 04:51:08;;;;;;;55.63;24.35;;;3.00;99.90;;;;;;5048084;28;20547;-70
2021/12/06 04:53:36;;;;;;;62.95;27.13;;;3.00;99.90;;;;;;5064861;28;20472;-70
2021/12/06 04:56:25;;;;;;;61.08;26.85;;;3.10;99.90;;;;;;5065655;28;20078;-70
2021/12/06 04:58:57;;;;;;;59.30;25.10;;;3.10;99.90;;;;;;5065154;28;20495;-70
2021/12/06 05:01:28;;;;;;;64.15;26.00;;;3.10;99.90;;;;;;5085297;28;20123;-70
2021/12/06 05:03:59;;;;;;;92.90;25.98;;;3.10;99.90;;;;;;5066622;28;20035;-70
2021/12/06 05:06:29;;;;;;;77.50;25.70;;;3.10;99.90;;;;;;5071025;28;20047;-70
2021/12/06 05:08:58;;;;;;;67.85;24.70;;;3.10;99.90;;;;;;5069492;28;20040;-70
2021/12/06 05:11:27;;;;;;;84.05;27.38;;;3.10;99.90;;;;;;5086658;28;20483;-70
2021/12/06 05:13:54;;;;;;;69.07;25.60;;;3.20;99.90;;;;;;5067352;28;20055;-70
2021/12/06 05:16:21;;;;;;;61.92;25.88;;;3.10;99.90;;;;;;5067566;28;20122;-70
2021/12/06 05:18:47;;;;;;;87.07;28.45;;;3.10;99.90;;;;;;5071158;28;20425;-70
2021/12/06 05:21:13;;;;;;;93.57;28.30;;;3.10;99.90;;;;;;5067521;28;20345;-70
2021/12/06 05:23:39;;;;;;;75.20;25.67;;;3.10;99.90;;;;;;5069699;28;20055;-70
2021/12/06 05:26:05;;;;;;;83.53;28.52;;;3.30;99.90;;;;;;5069056;28;20044;-70
2021/12/06 05:28:37;;;;;;;92.53;29.17;;;3.10;99.90;;;;;;5065753;28;20374;-70
2021/12/06 05:31:03;;;;;;;87.93;29.88;;;3.10;99.90;;;;;;5066354;28;20058;-70
2021/12/06 05:33:30;;;;;;;86.32;29.05;;;3.10;99.90;;;;;;5069899;28;20052;-70
2021/12/06 05:35:58;;;;;;;79.47;27.75;;;3.10;99.90;;;;;;5064620;28;20040;-70
2021/12/06 05:38:26;;;;;;;66.10;27.20;;;3.10;99.90;;;;;;5068229;28;20035;-70
2021/12/06 05:40:52;;;;;;;87.07;28.20;;;3.00;99.90;;;;;;5062676;28;20047;-70
2021/12/06 05:43:18;;;;;;;68.03;25.85;;;3.10;99.90;;;;;;5067784;28;20040;-70
2021/12/06 05:45:44;;;;;;;69.60;27.05;;;3.00;99.90;;;;;;5069942;28;20043;-70
2021/12/06 05:48:10;;;;;;;62.30;26.02;;;3.00;99.90;;;;;;5068123;28;20035;-70
2021/12/06 05:50:35;;;;;;;89.47;28.33;;;3.10;99.90;;;;;;5068230;28;20055;-71
2021/12/06 05:53:02;;;;;;;78.38;28.30;;;3.00;99.90;;;;;;5053524;28;20052;-71
2021/12/06 05:55:28;;;;;;;63.40;26.35;;;3.10;99.90;;;;;;5067521;28;20040;-70
2021/12/06 05:58:01;;;;;;;63.40;25.77;;;3.10;99.90;;;;;;5051474;28;20063;-71
2021/12/06 06:00:30;;;;;;;68.90;26.83;;;3.30;99.90;;;;;;5084229;28;20051;-70
2021/12/06 06:02:57;;;;;;;88.43;30.17;;;3.10;99.90;;;;;;5087719;28;20093;-70
2021/12/06 06:05:24;;;;;;;82.72;30.17;;;3.00;99.90;;;;;;5071199;28;20043;-70
2021/12/06 06:07:49;;;;;;;61.45;26.27;;;3.10;99.90;;;;;;5049381;28;20138;-70
2021/12/06 06:10:15;;;;;;;76.28;28.30;;;3.10;99.90;;;;;;5065864;28;20131;-70
2021/12/06 06:12:42;;;;;;;82.28;28.45;;;3.20;99.90;;;;;;5068485;28;20415;-70
2021/12/06 06:15:09;;;;;;;70.22;28.58;;;3.20;99.90;;;;;;5049929;28;20048;-70
2021/12/06 06:17:41;;;;;;;75.47;29.08;;;3.10;99.90;;;;;;5064469;28;20040;-70
2021/12/06 06:20:10;;;;;;;70.13;27.70;;;3.10;99.90;;;;;;5067776;28;20040;-70
2021/12/06 06:22:36;;;;;;;70.20;28.42;;;3.10;99.90;;;;;;5068198;28;20123;-70
2021/12/06 06:25:02;;;;;;;69.68;29.13;;;3.10;99.90;;;;;;5047834;28;20135;-70
2021/12/06 06:27:28;;;;;;;71.78;29.40;;;3.00;99.90;;;;;;5068468;28;20047;-70
2021/12/06 06:29:54;;;;;;;70.68;29.90;;;3.00;99.90;;;;;;5066084;28;20040;-70
2021/12/06 06:32:19;;;;;;;77.45;32.17;;;3.00;99.90;;;;;;5067183;28;20052;-70
2021/12/06 06:34:45;;;;;;;75.25;29.05;;;3.00;99.90;;;;;;5064475;28;20700;-70
2021/12/06 06:37:11;;;;;;;69.18;28.70;;;3.10;99.90;;;;;;5069003;28;20101;-71
2021/12/06 06:39:37;;;;;;;64.35;29.08;;;3.20;99.90;;;;;;5051152;28;20036;-71
2021/12/06 06:42:03;;;;;;;75.00;29.35;;;3.10;99.90;;;;;;5063249;28;20118;-71
2021/12/06 06:44:29;;;;;;;82.22;31.10;;;3.10;99.90;;;;;;5065595;28;20044;-71
2021/12/06 06:46:54;;;;;;;74.93;30.13;;;3.10;99.90;;;;;;5063850;28;20482;-70
2021/12/06 06:49:20;;;;;;;84.68;31.23;;;4.00;99.90;;;;;;5046727;28;20028;-70
2021/12/06 06:51:46;;;;;;;71.50;30.45;;;3.10;99.90;;;;;;5065756;28;20097;-70
2021/12/06 06:54:13;;;;;;;75.32;30.50;;;3.10;99.90;;;;;;5065727;28;20036;-70
2021/12/06 06:56:39;;;;;;;74.05;30.33;;;3.10;99.90;;;;;;5064829;28;20040;-70
2021/12/06 06:59:05;;;;;;;69.13;29.92;;;3.10;99.90;;;;;;5066377;28;20042;-69
2021/12/06 07:01:31;;;;;;;71.22;30.02;;;3.20;99.90;;;;;;5067906;28;20071;-69
2021/12/06 07:03:57;;;;;;;74.57;30.98;;;3.20;99.90;;;;;;5050808;28;20047;-70
2021/12/06 07:06:25;;;;;;;83.63;32.78;;;3.10;99.90;;;;;;5065206;28;20036;-69
2021/12/06 07:08:52;;;;;;;80.93;31.45;;;3.10;99.90;;;;;;5065945;28;20040;-70
2021/12/06 07:11:18;;;;;;;75.63;31.52;;;3.20;99.90;;;;;;5068637;28;20043;-69
2021/12/06 07:13:46;;;;;;;72.05;29.45;;;3.20;99.90;;;;;;5066821;28;20434;-70
2021/12/06 07:16:12;;;;;;;83.78;31.55;;;3.20;99.90;;;;;;5085844;28;20444;-69
2021/12/06 07:18:38;;;;;;;78.45;31.83;;;3.20;99.90;;;;;;5068991;28;20487;-70
2021/12/06 07:21:05;;;;;;;73.43;30.85;;;3.20;99.90;;;;;;5067119;28;20055;-71
2021/12/06 07:23:31;;;;;;;71.55;30.00;;;3.30;99.90;;;;;;5066607;28;20392;-70
2021/12/06 07:25:56;;;;;;;76.05;31.02;;;3.30;99.90;;;;;;5065510;28;20048;-70
2021/12/06 07:28:22;;;;;;;73.95;30.63;;;3.30;99.90;;;;;;5067398;28;20076;-70
2021/12/06 07:30:48;;;;;;;73.68;30.23;;;3.30;99.90;;;;;;5081937;28;20040;-70
2021/12/06 07:33:13;;;;;;;71.75;31.38;;;3.30;99.90;;;;;;5045865;28;20475;-70
2021/12/06 07:35:39;;;;;;;70.97;30.73;;;3.30;99.90;;;;;;5067512;28;20047;-70
2021/12/06 07:38:07;;;;;;;78.85;33.17;;;3.30;99.90;;;;;;5066593;28;20068;-70
2021/12/06 07:40:33;;;;;;;76.47;31.92;;;3.20;99.90;;;;;;5052004;28;20055;-70
2021/12/06 07:43:00;;;;;;;77.65;31.80;;;3.20;99.90;;;;;;5051559;28;20028;-70
2021/12/06 07:45:25;;;;;;;71.47;31.17;;;3.20;99.90;;;;;;5069708;28;20028;-70
2021/12/06 07:47:51;;;;;;;78.78;33.38;;;3.30;99.90;;;;;;5068735;28;20560;-70
2021/12/06 07:50:20;;;;;;;75.35;31.50;;;3.30;99.90;;;;;;5059062;28;20086;-70
2021/12/06 07:52:51;;;;;;;67.82;29.38;;;3.00;99.90;;;;;;5064340;28;20040;-70
2021/12/06 07:55:19;;;;;;;73.38;32.03;;;3.00;99.90;;;;;;5066399;28;20119;-70
2021/12/06 07:57:44;;;;;;;66.28;28.83;;;3.00;99.90;;;;;;5085919;28;20037;-70
2021/12/06 08:00:15;;;;;;;71.03;30.55;;;3.00;99.90;;;;;;5064589;28;20071;-70
2021/12/06 08:02:41;;;;;;;72.65;29.77;;;2.90;99.90;;;;;;5065500;28;20039;-70
2021/12/06 08:07:53;;;;;;;70.78;30.98;;;2.90;99.90;;;;;;5062430;28;20131;-69
2021/12/06 08:10:19;;;;;;;60.22;29.10;;;2.90;99.90;;;;;;5085974;28;20032;-70
2021/12/06 08:12:45;;;;;;;69.25;29.92;;;2.90;99.90;;;;;;5065431;28;21272;-70
2021/12/06 08:15:11;;;;;;;64.07;28.88;;;2.90;99.90;;;;;;5063300;28;20118;-69
2021/12/06 08:17:37;;;;;;;64.75;29.17;;;2.90;99.90;;;;;;5060646;28;20075;-70
2021/12/06 08:20:05;;;;;;;62.88;28.23;;;3.10;99.90;;;;;;5049814;28;20032;-70
2021/12/06 08:22:31;;;;;;;57.50;26.25;;;2.90;99.90;;;;;;5060863;28;20060;-69
2021/12/06 08:24:57;;;;;;;60.70;26.27;;;2.90;99.90;;;;;;5057694;28;20047;-70
2021/12/06 08:27:23;;;;;;;62.08;27.73;;;2.90;99.90;;;;;;5081474;28;20396;-69
2021/12/06 08:29:49;;;;;;;54.67;25.40;;;3.00;99.90;;;;;;5064494;28;20036;-69
2021/12/06 08:32:15;;;;;;;58.83;27.98;;;3.70;99.90;;;;;;5065873;28;20739;-70
2021/12/06 08:34:41;;;;;;;54.25;25.17;;;2.90;99.90;;;;;;5081695;28;20509;-70
2021/12/06 08:37:11;;;;;;;55.30;25.90;;;3.00;99.90;;;;;;5049690;28;20033;-70
2021/12/06 08:39:38;;;;;;;49.67;25.17;;;2.90;99.90;;;;;;5059585;28;20275;-69
2021/12/06 08:42:05;;;;;;;62.28;26.70;;;2.90;99.90;;;;;;5060939;28;20052;-69
2021/12/06 08:44:31;;;;;;;52.05;24.63;;;2.90;99.90;;;;;;5066609;28;20051;-69
2021/12/06 08:46:57;;;;;;;54.97;25.88;;;2.90;99.90;;;;;;5068958;28;20039;-70
2021/12/06 08:49:22;;;;;;;45.30;23.30;;;2.90;99.90;;;;;;5059776;28;20047;-70
2021/12/06 08:51:51;;;;;;;56.35;24.95;;;2.90;99.90;;;;;;5059346;28;20519;-70
2021/12/06 08:54:18;;;;;;;48.90;24.90;;;2.90;99.90;;;;;;5082447;28;20099;-70
2021/12/06 08:56:46;;;;;;;49.63;24.02;;;2.90;99.90;;;;;;5072581;28;20043;-70
2021/12/06 08:59:13;;;;;;;48.75;23.83;;;2.80;99.90;;;;;;5062365;28;20040;-70
2021/12/06 09:01:40;;;;;;;43.13;22.30;;;2.80;99.90;;;;;;5087161;28;20059;-70
2021/12/06 09:04:10;;;;;;;49.20;23.73;;;2.70;99.90;;;;;;5081410;28;20150;-70
2021/12/06 09:06:41;;;;;;;55.30;25.55;;;2.60;99.90;;;;;;5048870;28;20040;-70
2021/12/06 09:09:09;;;;;;;54.83;24.70;;;2.60;99.90;;;;;;5080949;28;20067;-70
2021/12/06 09:11:40;;;;;;;56.15;24.92;;;2.70;99.90;;;;;;5082415;28;20083;-70
2021/12/06 09:14:06;;;;;;;51.67;24.42;;;2.70;99.90;;;;;;5068309;28;20423;-70
2021/12/06 09:16:33;;;;;;;58.83;26.00;;;2.80;99.90;;;;;;5085191;28;20075;-70
2021/12/06 09:19:00;;;;;;;50.95;23.98;;;2.90;99.90;;;;;;5068316;28;20083;-70
2021/12/06 09:21:27;;;;;;;45.50;22.63;;;3.10;99.90;;;;;;5089184;28;20048;-70
2021/12/06 09:23:55;;;;;;;53.83;25.25;;;2.90;99.90;;;;;;5049465;28;20376;-70
2021/12/06 09:26:21;;;;;;;53.25;24.75;;;2.90;99.90;;;;;;5086758;28;20108;-70
2021/12/06 09:28:47;;;;;;;48.60;23.42;;;3.00;99.90;;;;;;5043964;28;20048;-68
2021/12/06 09:31:16;;;;;;;54.35;24.60;;;3.10;99.90;;;;;;5086949;28;20097;-70
2021/12/06 09:33:42;;;;;;;52.63;23.52;;;3.10;99.90;;;;;;5080250;28;20052;-70
2021/12/06 09:36:10;;;;;;;53.45;23.98;;;3.10;99.90;;;;;;5066184;28;20493;-70
2021/12/06 09:38:39;;;;;;;50.70;23.42;;;3.10;99.90;;;;;;5084476;28;20040;-70
2021/12/06 09:41:13;;;;;;;37.47;21.45;;;3.10;99.90;;;;;;5069661;28;20062;-70
2021/12/06 09:43:41;;;;;;;43.28;21.73;;;3.10;99.90;;;;;;5048804;28;20043;-70
2021/12/06 09:46:09;;;;;;;34.65;19.13;;;3.10;99.90;;;;;;5048972;28;20479;-69
2021/12/06 09:48:41;;;;;;;49.92;21.75;;;3.10;99.90;;;;;;5063458;28;20052;-69
2021/12/06 09:51:14;;;;;;;47.33;23.00;;;3.20;99.90;;;;;;5084715;28;20044;-69
2021/12/06 09:53:43;;;;;;;48.50;22.15;;;3.20;99.90;;;;;;5066186;28;20084;-69
2021/12/06 09:56:12;;;;;;;51.67;24.13;;;3.20;99.90;;;;;;5067785;28;20044;-70
2021/12/06 09:58:39;;;;;;;53.88;23.88;;;3.20;99.90;;;;;;5084450;28;20082;-70
2021/12/06 10:01:20;;;;;;;57.63;24.85;;;3.20;99.90;;;;;;5067484;28;20044;-70
2021/12/06 10:03:48;;;;;;;58.67;25.70;;;3.90;99.90;;;;;;5067085;28;20476;-70
2021/12/06 10:06:15;;;;;;;57.42;25.52;;;3.20;99.90;;;;;;5068546;28;20036;-69
2021/12/06 10:08:45;;;;;;;63.72;25.55;;;3.30;99.90;;;;;;5062169;28;20043;-70
2021/12/06 10:11:14;;;;;;;54.30;25.92;;;3.30;99.90;;;;;;5069897;28;20515;-70
2021/12/06 10:13:41;;;;;;;61.28;27.30;;;3.30;99.90;;;;;;5066966;28;20427;-69
2021/12/06 10:16:08;;;;;;;55.40;26.17;;;3.30;99.90;;;;;;5070017;28;20390;-69
2021/12/06 10:18:34;;;;;;;62.47;25.38;;;3.70;99.90;;;;;;5059312;28;20043;-68
2021/12/06 10:21:02;;;;;;;59.30;25.42;;;3.40;99.90;;;;;;5065477;28;20044;-68
2021/12/06 10:23:28;;;;;;;54.28;24.23;;;3.40;99.90;;;;;;5084799;28;20078;-68
2021/12/06 10:25:55;;;;;;;58.38;25.98;;;3.40;99.90;;;;;;5086739;28;20048;-67
2021/12/06 10:28:25;;;;;;;54.17;24.50;;;3.40;99.90;;;;;;5065657;28;20487;-68
2021/12/06 10:30:55;;;;;;;49.42;22.50;;;3.40;99.90;;;;;;5084408;28;20055;-68
2021/12/06 10:33:24;;;;;;;52.55;23.48;;;3.40;99.90;;;;;;5083188;28;20412;-68
2021/12/06 10:35:55;;;;;;;48.28;22.83;;;3.40;99.90;;;;;;5085986;28;20048;-67
2021/12/06 10:38:28;;;;;;;49.97;22.95;;;3.50;99.90;;;;;;5087351;28;20465;-66
2021/12/06 10:41:09;;;;;;;44.95;22.13;;;3.50;99.90;;;;;;5063230;28;20063;-67
2021/12/06 10:43:36;;;;;;;47.05;22.17;;;3.50;99.90;;;;;;5065221;28;20047;-67
2021/12/06 10:46:04;;;;;;;47.25;21.75;;;3.50;99.90;;;;;;5069574;28;20051;-67
2021/12/06 10:48:34;;;;;;;44.75;21.55;;;3.50;99.90;;;;;;5068560;28;20044;-67
2021/12/06 10:51:11;;;;;;;36.53;18.48;;;3.60;99.90;;;;;;5060536;28;20127;-67
2021/12/06 10:53:46;;;;;;;46.47;21.13;;;3.60;99.90;;;;;;5069605;28;20044;-67
2021/12/06 10:56:21;;;;;;;44.15;21.17;;;3.50;99.90;;;;;;5065008;28;20060;-67
2021/12/06 10:58:50;;;;;;;39.20;19.60;;;3.50;99.90;;;;;;5065909;28;20268;-67
2021/12/06 11:01:24;;;;;;;37.78;19.27;;;3.50;99.90;;;;;;5060533;28;20557;-67
2021/12/06 11:03:53;;;;;;;44.40;20.95;;;3.50;99.90;;;;;;5083840;28;20047;-67
2021/12/06 11:06:25;;;;;;;42.53;21.42;;;4.50;99.90;;;;;;5085629;28;20048;-67
2021/12/06 11:08:57;;;;;;;47.95;22.33;;;3.50;99.90;;;;;;5060441;28;20051;-67
2021/12/06 11:11:30;;;;;;;43.33;21.63;;;3.50;99.90;;;;;;5061899;28;20503;-68
2021/12/06 11:13:59;;;;;;;49.10;22.33;;;3.50;99.90;;;;;;5080056;28;20102;-68
2021/12/06 11:16:32;;;;;;;57.97;25.77;;;3.50;99.90;;;;;;5060818;28;20048;-68
2021/12/06 11:19:10;;;;;;;51.70;24.10;;;3.60;99.90;;;;;;5059962;28;20043;-67
2021/12/06 11:21:52;;;;;;;59.72;26.40;;;3.50;99.90;;;;;;5059223;28;20455;-68
2021/12/06 11:24:39;;;;;;;55.35;26.10;;;3.50;99.90;;;;;;5066478;28;20458;-68
2021/12/06 11:27:06;;;;;;;56.05;26.35;;;3.50;99.90;;;;;;5065653;28;20040;-68
2021/12/06 11:29:39;;;;;;;50.25;24.30;;;3.50;99.90;;;;;;5063124;28;20076;-68
2021/12/06 11:32:11;;;;;;;52.92;24.88;;;3.50;99.90;;;;;;5062169;28;20139;-68
2021/12/06 11:34:42;;;;;;;46.80;24.70;;;3.60;99.90;;;;;;5065909;28;20120;-67
2021/12/06 11:37:26;;;;;;;44.92;23.60;;;3.60;99.90;;;;;;5067321;28;20115;-68
2021/12/06 11:40:17;;;;;;;48.25;24.48;;;3.60;99.90;;;;;;5069969;28;20471;-67
2021/12/06 11:42:52;;;;;;;56.03;25.40;;;3.50;99.90;;;;;;5067768;28;20118;-68
2021/12/06 11:45:35;;;;;;;57.97;26.75;;;3.70;99.90;;;;;;5064703;28;20068;-68
2021/12/06 11:48:28;;;;;;;59.40;27.85;;;3.50;99.90;;;;;;5066573;28;20612;-68
2021/12/06 11:51:01;;;;;;;58.45;27.98;;;3.50;99.90;;;;;;5059216;28;20051;-67
2021/12/06 11:53:33;;;;;;;58.95;27.23;;;3.50;99.90;;;;;;5067466;28;20401;-68
2021/12/06 11:56:15;;;;;;;59.50;26.65;;;3.50;99.90;;;;;;5087493;28;20681;-67
2021/12/06 11:58:51;;;;;;;73.53;32.20;;;3.50;99.90;;;;;;5062718;28;20051;-67
2021/12/06 12:01:17;;;;;;;71.93;30.60;;;3.50;99.90;;;;;;5062565;28;20541;-67
2021/12/06 12:03:46;;;;;;;62.28;28.48;;;3.50;99.90;;;;;;5063002;28;20044;-67
2021/12/06 12:06:31;;;;;;;65.70;31.05;;;3.50;99.90;;;;;;5081209;28;20476;-67
2021/12/06 12:09:20;;;;;;;56.20;28.67;;;3.60;99.90;;;;;;5065129;28;20047;-67
2021/12/06 12:12:23;;;;;;;58.90;28.48;;;3.70;99.90;;;;;;5061449;28;20087;-66
2021/12/06 12:14:59;;;;;;;63.40;29.00;;;3.60;99.90;;;;;;5034109;28;20047;-67
2021/12/06 12:17:33;;;;;;;64.32;30.63;;;3.70;99.90;;;;;;5048895;28;20043;-67
2021/12/06 12:20:04;;;;;;;56.90;27.27;;;3.70;99.90;;;;;;5078369;28;20056;-67
2021/12/06 12:22:30;;;;;;;62.22;29.77;;;3.70;99.90;;;;;;5079741;28;20137;-67
2021/12/06 12:25:04;;;;;;;61.67;29.88;;;3.70;99.90;;;;;;5061090;28;20094;-67
2021/12/06 12:30:02;;;;;;;63.75;30.25;;;3.70;99.90;;;;;;5088204;28;20054;-67
2021/12/06 12:32:29;;;;;;;59.28;28.70;;;3.70;99.90;;;;;;5089853;28;20059;-67
2021/12/06 12:35:06;;;;;;;62.20;30.73;;;3.80;99.90;;;;;;5066217;28;20032;-67
2021/12/06 12:37:35;;;;;;;65.07;30.10;;;3.70;99.90;;;;;;5066511;28;20040;-67
2021/12/06 12:40:04;;;;;;;68.18;30.98;;;3.70;99.90;;;;;;5069378;28;20047;-67
2021/12/06 12:42:30;;;;;;;68.63;30.95;;;3.60;99.90;;;;;;5068852;28;20858;-67
2021/12/06 12:44:59;;;;;;;72.65;32.42;;;3.60;99.90;;;;;;5049517;28;20135;-67
2021/12/06 12:47:31;;;;;;;68.88;32.40;;;3.70;99.90;;;;;;5087457;28;20362;-67
2021/12/06 12:50:18;;;;;;;71.30;33.30;;;3.70;99.90;;;;;;5070075;28;20102;-67
2021/12/06 12:52:52;;;;;;;64.43;30.13;;;3.70;99.90;;;;;;5083778;28;20046;-67
2021/12/06 12:55:20;;;;;;;71.63;31.02;;;3.70;99.90;;;;;;5066291;28;20447;-67
2021/12/06 12:57:47;;;;;;;73.07;32.03;;;3.70;99.90;;;;;;5065047;28;20476;-67
2021/12/06 13:00:24;;;;;;;64.10;31.27;;;3.70;99.90;;;;;;5065593;28;20055;-67
2021/12/06 13:02:49;;;;;;;63.00;29.38;;;3.90;99.90;;;;;;5085262;28;20048;-67